createdAt,value
2022-07-31T00:02:01.391Z,0
2022-07-31T00:08:21.298Z,0
2022-07-31T00:14:44.359Z,0
2022-07-31T00:21:04.311Z,0
2022-07-31T00:27:27.355Z,0
2022-07-31T00:33:47.325Z,0
2022-07-31T00:40:10.309Z,0
2022-07-31T00:46:30.334Z,0
2022-07-31T00:52:53.315Z,0
2022-07-31T00:59:13.393Z,0
2022-07-31T01:05:36.315Z,0
2022-07-31T01:11:56.378Z,0
2022-07-31T01:18:19.319Z,0
2022-07-31T01:24:39.350Z,0
2022-07-31T01:31:17.555Z,0
2022-07-31T01:37:22.349Z,0
2022-07-31T01:43:45.310Z,0
2022-07-31T01:50:05.329Z,0
2022-07-31T01:56:28.340Z,0
2022-07-31T02:02:48.325Z,0
2022-07-31T02:09:11.340Z,0
2022-07-31T02:15:31.311Z,0
2022-07-31T02:21:54.364Z,0
2022-07-31T02:28:14.328Z,0
2022-07-31T02:34:37.363Z,0
2022-07-31T02:40:57.366Z,0
2022-07-31T02:47:20.372Z,0
2022-07-31T02:53:40.334Z,0
2022-07-31T03:00:03.356Z,0
2022-07-31T03:06:23.319Z,0
2022-07-31T03:12:46.324Z,0
2022-07-31T03:19:06.329Z,1
2022-07-31T03:25:29.318Z,1
2022-07-31T03:31:49.324Z,2
2022-07-31T03:38:32.955Z,5
2022-07-31T03:44:32.375Z,8
2022-07-31T03:50:55.336Z,18
2022-07-31T03:57:15.355Z,46
2022-07-31T04:13:44.221Z,110
2022-07-31T04:20:05.506Z,197
2022-07-31T04:26:27.364Z,331
2022-07-31T04:32:47.309Z,394
2022-07-31T04:39:10.346Z,388
2022-07-31T04:45:30.344Z,478
2022-07-31T04:51:53.315Z,462
2022-07-31T04:58:13.373Z,455
2022-07-31T05:04:36.316Z,654
2022-07-31T05:10:56.310Z,514
2022-07-31T05:17:19.360Z,380
2022-07-31T05:23:39.314Z,421
2022-07-31T05:30:02.382Z,609
2022-07-31T05:36:22.373Z,783
2022-07-31T05:42:45.356Z,1058
2022-07-31T05:49:05.380Z,1116
2022-07-31T05:55:28.327Z,1584
2022-07-31T06:01:48.456Z,1748
2022-07-31T06:08:11.312Z,1699
2022-07-31T06:14:31.335Z,1936
2022-07-31T06:20:54.339Z,2097
2022-07-31T06:27:14.910Z,1990
2022-07-31T06:33:37.917Z,2293
2022-07-31T06:39:57.312Z,2440
2022-07-31T06:46:20.321Z,2367
2022-07-31T06:52:40.322Z,2489
2022-07-31T06:59:03.315Z,2422
2022-07-31T07:05:23.349Z,2633
2022-07-31T07:11:46.316Z,2709
2022-07-31T07:18:06.313Z,2427
2022-07-31T07:24:29.327Z,2058
2022-07-31T07:30:49.324Z,2160
2022-07-31T07:37:12.351Z,2256
2022-07-31T07:43:32.310Z,1817
2022-07-31T07:49:55.359Z,1722
2022-07-31T07:56:15.558Z,1465
2022-07-31T08:02:38.320Z,1918
2022-07-31T08:08:58.349Z,2457
2022-07-31T08:15:21.312Z,2530
2022-07-31T08:21:41.447Z,2765
2022-07-31T08:28:04.333Z,2714
2022-07-31T08:34:31.140Z,2500
2022-07-31T08:40:47.369Z,2232
2022-07-31T08:47:07.322Z,3314
2022-07-31T08:53:30.318Z,3158
2022-07-31T08:59:50.338Z,3790
2022-07-31T09:06:14.325Z,4044
2022-07-31T09:12:34.830Z,4246
2022-07-31T09:18:57.321Z,4840
2022-07-31T09:25:17.366Z,4458
2022-07-31T09:31:40.324Z,5440
2022-07-31T09:38:00.318Z,5577
2022-07-31T09:44:25.451Z,5835
2022-07-31T09:50:43.317Z,4778
2022-07-31T10:14:55.338Z,4976
2022-07-31T10:21:18.317Z,5141
2022-07-31T10:27:39.471Z,5517
2022-07-31T10:34:01.314Z,5290
2022-07-31T10:40:21.322Z,6059
2022-07-31T10:46:44.335Z,5255
2022-07-31T10:53:04.315Z,5668
2022-07-31T10:59:27.359Z,4646
2022-07-31T11:06:00.790Z,5584
2022-07-31T11:12:10.375Z,4852
2022-07-31T11:18:34.292Z,5084
2022-07-31T11:24:54.382Z,7059
2022-07-31T11:31:14.360Z,4665
2022-07-31T11:37:46.689Z,6605
2022-07-31T11:43:57.358Z,8229
2022-07-31T11:50:20.332Z,4701
2022-07-31T11:56:40.640Z,4941
2022-07-31T12:03:03.445Z,4968
2022-07-31T12:10:01.680Z,5894
2022-07-31T12:15:46.363Z,5204
2022-07-31T12:22:06.312Z,6686
2022-07-31T12:28:29.312Z,6978
2022-07-31T12:34:49.350Z,8096
2022-07-31T12:41:12.318Z,8121
2022-07-31T12:47:32.364Z,5455
2022-07-31T12:53:55.336Z,9765
2022-07-31T13:00:15.310Z,7393
2022-07-31T13:06:38.370Z,5346
2022-07-31T13:12:58.326Z,5519
2022-07-31T13:19:21.360Z,4259
2022-07-31T13:25:41.311Z,7037
2022-07-31T13:32:04.314Z,9760
2022-07-31T13:38:24.343Z,9982
2022-07-31T13:44:47.316Z,10151
2022-07-31T13:51:07.364Z,6536
2022-07-31T13:57:30.308Z,8163
2022-07-31T14:03:50.325Z,6823
2022-07-31T14:10:16.006Z,4263
2022-07-31T14:16:33.311Z,7273
2022-07-31T14:22:56.355Z,6916
2022-07-31T14:29:16.315Z,6627
2022-07-31T14:35:39.319Z,7607
2022-07-31T14:41:59.332Z,5483
2022-07-31T14:48:22.314Z,5153
2022-07-31T14:54:42.371Z,4840
2022-07-31T15:01:05.398Z,10316
2022-07-31T15:07:35.163Z,6037
2022-07-31T15:13:48.417Z,9481
2022-07-31T15:20:08.318Z,5693
2022-07-31T15:26:31.364Z,5176
2022-07-31T15:32:51.326Z,5331
2022-07-31T15:39:14.361Z,4246
2022-07-31T15:45:34.311Z,3710
2022-07-31T15:51:57.322Z,3273
2022-07-31T16:15:03.853Z,3614
2022-07-31T16:21:23.315Z,3127
2022-07-31T16:27:46.372Z,2906
2022-07-31T16:34:06.332Z,3724
2022-07-31T16:40:31.761Z,17536
2022-07-31T16:46:54.360Z,4059
2022-07-31T16:53:13.527Z,4184
2022-07-31T16:59:32.345Z,2325
2022-07-31T17:05:55.341Z,1330
2022-07-31T17:12:15.381Z,1362
2022-07-31T17:18:38.380Z,1739
2022-07-31T17:24:58.311Z,1741
2022-07-31T17:31:21.317Z,1739
2022-07-31T17:37:41.413Z,2915
2022-07-31T17:44:04.319Z,4873
2022-07-31T17:50:24.351Z,1771
2022-07-31T17:56:47.352Z,1389
2022-07-31T18:03:07.316Z,891
2022-07-31T18:09:32.778Z,683
2022-07-31T18:15:52.316Z,567
2022-07-31T18:22:15.370Z,523
2022-07-31T18:28:35.308Z,549
2022-07-31T18:34:58.322Z,456
2022-07-31T18:41:18.362Z,276
2022-07-31T18:47:41.317Z,228
2022-07-31T18:54:01.371Z,171
2022-07-31T19:00:24.321Z,156
2022-07-31T19:06:44.653Z,114
2022-07-31T19:13:07.315Z,68
2022-07-31T19:19:30.385Z,55
2022-07-31T19:25:53.071Z,28
2022-07-31T19:32:10.357Z,12
2022-07-31T19:38:33.336Z,5
2022-07-31T19:44:53.305Z,3
2022-07-31T19:51:16.353Z,2
2022-07-31T19:57:36.321Z,1
2022-07-31T20:03:59.351Z,1
2022-07-31T20:10:19.315Z,0
2022-07-31T20:16:42.302Z,0
2022-07-31T20:23:02.357Z,0
2022-07-31T20:29:25.307Z,0
2022-07-31T20:35:47.430Z,0
2022-07-31T20:42:08.445Z,0
2022-07-31T20:48:28.302Z,0
2022-07-31T20:54:51.369Z,0
2022-07-31T21:01:11.386Z,0
2022-07-31T21:07:34.341Z,0
2022-07-31T21:13:54.334Z,0
2022-07-31T21:20:17.325Z,0
2022-07-31T21:26:37.372Z,0
2022-07-31T21:33:00.325Z,0
2022-07-31T21:39:20.316Z,0
2022-07-31T21:56:17.254Z,0
2022-07-31T22:20:32.311Z,0
2022-07-31T22:26:52.355Z,0
2022-07-31T22:33:15.326Z,0
2022-07-31T22:39:35.308Z,0
2022-07-31T22:45:58.348Z,0
2022-07-31T22:52:18.314Z,0
2022-07-31T22:58:41.315Z,0
2022-07-31T23:05:01.344Z,0
2022-07-31T23:11:24.311Z,0
2022-07-31T23:17:44.407Z,0
2022-07-31T23:24:07.305Z,0
2022-07-31T23:30:27.379Z,0
2022-07-31T23:36:50.314Z,0
2022-07-31T23:43:10.332Z,0
2022-07-31T23:49:33.386Z,0
2022-07-31T23:55:53.328Z,0
